Time;durP1;ratioP1;P1;durP2;ratioP2;P2;SDS_P1;SDS_P2;PMS_P1;PMS_P2;Temp;Humidity;BMP_temperature;BMP_pressure;BME280_temperature;BME280_humidity;BME280_pressure;Samples;Min_cycle;Max_cycle;Signal;HPM_P1;HPM_P2
2020/12/23 05:00:36;;;;;;;11.57;6.20;;;5.10;99.90;;;;;;6023515;23;20566;31
2020/12/23 05:03:02;;;;;;;5.88;5.38;;;5.10;99.90;;;;;;4895253;29;20215;-71
2020/12/23 05:05:28;;;;;;;7.97;6.47;;;5.00;99.90;;;;;;4896619;29;20223;-71
2020/12/23 05:07:55;;;;;;;7.65;6.00;;;5.00;99.90;;;;;;4897340;29;20210;-72
2020/12/23 05:10:21;;;;;;;7.40;5.85;;;5.00;99.90;;;;;;4896524;29;20203;-71
2020/12/23 05:12:47;;;;;;;8.73;6.30;;;4.90;99.90;;;;;;4896419;29;20218;-71
2020/12/23 05:15:14;;;;;;;7.60;5.70;;;4.90;99.90;;;;;;4896285;29;20218;-71
2020/12/23 05:17:46;;;;;;;7.63;5.15;;;4.90;99.90;;;;;;4896478;29;20204;-71
2020/12/23 05:20:12;;;;;;;8.75;4.13;;;4.90;99.90;;;;;;4896032;29;20247;-71
2020/12/23 05:22:38;;;;;;;6.15;5.32;;;4.90;99.90;;;;;;4896947;29;20207;-71
2020/12/23 05:25:05;;;;;;;5.65;3.55;;;4.90;99.90;;;;;;4896294;29;20234;-71
2020/12/23 05:27:33;;;;;;;12.23;4.70;;;5.00;99.90;;;;;;4895915;29;20566;-71
2020/12/23 05:30:01;;;;;;;10.88;4.90;;;5.00;99.90;;;;;;4896918;29;20208;-71
2020/12/23 05:32:27;;;;;;;17.20;5.07;;;5.00;99.90;;;;;;4895865;29;21827;-71
2020/12/23 05:34:59;;;;;;;15.45;5.32;;;5.00;99.90;;;;;;4896880;29;20230;-71
2020/12/23 05:37:26;;;;;;;23.10;5.72;;;5.00;99.90;;;;;;4896709;29;20211;-71
2020/12/23 05:39:53;;;;;;;23.45;4.90;;;5.00;99.90;;;;;;4897758;29;20226;-71
2020/12/23 05:42:19;;;;;;;40.15;5.35;;;5.00;99.90;;;;;;4895243;29;20223;-71
2020/12/23 05:44:51;;;;;;;32.55;5.32;;;5.00;99.90;;;;;;4896820;29;20230;-71
2020/12/23 05:47:20;;;;;;;27.70;5.80;;;5.00;99.90;;;;;;4895951;29;20626;-71
2020/12/23 05:49:50;;;;;;;16.67;4.80;;;5.00;99.90;;;;;;4878744;29;20212;-71
2020/12/23 05:52:18;;;;;;;14.88;5.30;;;5.00;99.90;;;;;;4893326;29;20219;-71
2020/12/23 05:54:45;;;;;;;17.83;5.75;;;5.00;99.90;;;;;;4896559;29;20298;-71
2020/12/23 05:57:11;;;;;;;32.97;7.45;;;5.00;99.90;;;;;;4895590;29;20664;-71
2020/12/23 05:59:37;;;;;;;21.75;7.53;;;5.00;99.90;;;;;;4897523;29;20211;-71
2020/12/23 06:02:04;;;;;;;62.20;10.40;;;5.00;99.90;;;;;;4895916;29;20729;-71
2020/12/23 06:04:32;;;;;;;25.08;6.50;;;5.00;99.90;;;;;;4896821;29;20231;-71
2020/12/23 06:07:04;;;;;;;33.45;6.45;;;4.90;99.90;;;;;;4895718;29;20378;-71
2020/12/23 06:09:37;;;;;;;29.90;5.78;;;4.90;99.90;;;;;;4897072;29;20207;-71
2020/12/23 06:12:16;;;;;;;28.10;5.38;;;4.90;99.90;;;;;;4895266;29;20223;-71
2020/12/23 06:14:51;;;;;;;16.23;4.50;;;4.80;99.90;;;;;;4896579;29;20629;-71
2020/12/23 06:17:20;;;;;;;14.60;7.38;;;4.80;99.90;;;;;;4895626;29;20251;-71
2020/12/23 06:19:49;;;;;;;45.03;11.32;;;4.70;99.90;;;;;;4896833;29;20207;-71
2020/12/23 06:22:16;;;;;;;37.92;11.02;;;4.70;99.90;;;;;;4895993;29;20258;-71
2020/12/23 06:24:44;;;;;;;23.77;6.72;;;4.70;99.90;;;;;;4896711;29;20657;-71
2020/12/23 06:27:11;;;;;;;30.98;7.78;;;4.70;99.90;;;;;;4896871;29;20589;-71
2020/12/23 06:29:39;;;;;;;52.80;12.65;;;4.70;99.90;;;;;;4900141;29;20702;-70
2020/12/23 06:32:07;;;;;;;282.65;59.83;;;4.70;99.90;;;;;;4898937;29;20231;-70
2020/12/23 06:34:35;;;;;;;341.55;69.90;;;4.70;99.90;;;;;;4900181;29;20203;-70
2020/12/23 06:37:15;;;;;;;238.85;58.72;;;4.70;99.90;;;;;;4899643;29;20207;-70
2020/12/23 06:39:43;;;;;;;127.60;40.55;;;4.70;99.90;;;;;;4901008;29;20203;-71
2020/12/23 06:42:27;;;;;;;61.08;22.35;;;4.70;99.90;;;;;;4898856;29;20263;-71
2020/12/23 06:44:56;;;;;;;33.72;10.70;;;4.70;99.90;;;;;;4903157;29;20241;-71
2020/12/23 06:47:23;;;;;;;9.75;5.82;;;4.70;99.90;;;;;;4899897;29;20208;-71
2020/12/23 06:49:51;;;;;;;10.93;5.95;;;4.70;99.90;;;;;;4901000;29;20211;-71
2020/12/23 06:52:43;;;;;;;8.75;5.53;;;4.70;99.90;;;;;;4899032;29;20226;-72
2020/12/23 06:55:12;;;;;;;18.05;5.25;;;4.60;99.90;;;;;;4899489;29;20211;-72
2020/12/23 06:57:58;;;;;;;9.18;4.47;;;4.60;99.90;;;;;;4899029;29;20210;-72
2020/12/23 07:00:34;;;;;;;4.65;4.18;;;4.60;99.90;;;;;;4899366;29;20208;-71
2020/12/23 07:03:02;;;;;;;5.40;4.22;;;4.60;99.90;;;;;;4897450;29;20214;-71
2020/12/23 07:05:43;;;;;;;5.38;3.20;;;4.50;99.90;;;;;;4898772;29;20227;-71
2020/12/23 07:08:10;;;;;;;3.90;3.47;;;4.50;99.90;;;;;;4899412;29;20226;-71
2020/12/23 07:10:39;;;;;;;7.72;3.85;;;4.50;99.90;;;;;;4899859;29;20726;-72
2020/12/23 07:13:07;;;;;;;5.53;3.53;;;4.50;99.90;;;;;;4897027;29;20203;-71
2020/12/23 07:15:34;;;;;;;3.80;3.50;;;4.50;99.90;;;;;;4897965;29;20263;-71
2020/12/23 07:18:03;;;;;;;3.55;3.13;;;4.50;99.90;;;;;;4898555;29;20223;-71
2020/12/23 07:20:35;;;;;;;3.20;3.00;;;4.50;99.90;;;;;;4899105;29;20227;-71
2020/12/23 07:23:06;;;;;;;3.80;3.50;;;4.40;99.90;;;;;;4898552;29;20212;-71
2020/12/23 07:25:37;;;;;;;3.40;3.08;;;4.40;99.90;;;;;;4898920;29;20257;-71
2020/12/23 07:28:10;;;;;;;6.72;3.63;;;4.40;99.90;;;;;;4897985;29;20231;-71
2020/12/23 07:30:39;;;;;;;3.92;3.53;;;4.40;99.90;;;;;;4897465;29;20279;-71
2020/12/23 07:33:07;;;;;;;4.95;3.72;;;4.40;99.90;;;;;;4899248;29;20242;-71
2020/12/23 07:35:35;;;;;;;7.53;3.47;;;4.40;99.90;;;;;;4900504;29;20203;-71
2020/12/23 07:38:04;;;;;;;2.88;2.63;;;4.40;99.90;;;;;;4907456;29;20218;-71
2020/12/23 07:40:31;;;;;;;4.05;3.67;;;4.40;99.90;;;;;;4916942;29;20234;-70
2020/12/23 07:42:57;;;;;;;4.03;3.60;;;4.40;99.90;;;;;;4898801;29;20307;-71
2020/12/23 07:45:26;;;;;;;3.55;3.25;;;4.40;99.90;;;;;;4898220;29;20238;-70
2020/12/23 07:47:54;;;;;;;3.70;3.35;;;4.40;99.90;;;;;;4896985;29;20660;-70
2020/12/23 07:50:20;;;;;;;3.45;3.25;;;4.40;99.90;;;;;;4897443;29;20350;-71
2020/12/23 07:52:47;;;;;;;3.38;3.08;;;4.40;99.90;;;;;;4896526;29;20326;-71
2020/12/23 07:55:13;;;;;;;3.40;3.10;;;4.40;99.90;;;;;;4897386;29;20236;-70
2020/12/23 07:57:40;;;;;;;4.43;3.45;;;4.40;99.90;;;;;;4896672;29;20227;-70
2020/12/23 08:00:07;;;;;;;4.60;3.00;;;4.40;99.90;;;;;;4897347;29;20215;-71
2020/12/23 08:02:34;;;;;;;5.25;3.72;;;4.30;99.90;;;;;;4896660;29;20246;-70
2020/12/23 08:05:01;;;;;;;4.50;3.50;;;4.30;99.90;;;;;;4890936;29;20239;-70
2020/12/23 08:07:27;;;;;;;6.80;3.88;;;4.20;99.90;;;;;;4899908;29;20217;-72
2020/12/23 08:09:53;;;;;;;5.28;3.20;;;4.10;99.90;;;;;;4897627;29;20211;-71
2020/12/23 08:12:21;;;;;;;5.22;3.83;;;4.10;99.90;;;;;;4895493;29;20704;-71
2020/12/23 08:14:48;;;;;;;8.35;5.28;;;4.20;99.90;;;;;;4897995;29;20203;-71
2020/12/23 08:17:20;;;;;;;3.80;3.17;;;4.20;99.90;;;;;;4896838;29;20660;-72
2020/12/23 08:20:01;;;;;;;4.30;3.70;;;4.20;99.90;;;;;;4898031;29;20207;-72
2020/12/23 08:22:28;;;;;;;3.33;3.03;;;4.20;99.90;;;;;;4893674;29;20245;-70
2020/12/23 08:25:00;;;;;;;7.88;4.47;;;4.10;99.90;;;;;;4897377;29;20237;-71
2020/12/23 08:27:27;;;;;;;5.90;4.10;;;4.10;99.90;;;;;;4896760;29;20222;-71
2020/12/23 08:29:53;;;;;;;5.07;3.40;;;4.20;99.90;;;;;;4897672;29;20237;-72
2020/12/23 08:32:25;;;;;;;3.97;3.15;;;4.20;99.90;;;;;;4895568;29;20231;-70
2020/12/23 08:34:53;;;;;;;8.85;4.30;;;4.20;99.90;;;;;;4879132;29;20302;-71
2020/12/23 08:37:23;;;;;;;7.05;4.60;;;4.30;99.90;;;;;;4892852;29;20694;-72
2020/12/23 08:39:56;;;;;;;4.72;4.28;;;4.30;99.90;;;;;;4896847;29;20211;-70
2020/12/23 08:42:22;;;;;;;7.50;4.68;;;4.40;99.90;;;;;;4894061;29;20703;-72
2020/12/23 08:44:54;;;;;;;4.47;3.33;;;4.40;99.90;;;;;;4897169;29;20287;-71
2020/12/23 08:47:32;;;;;;;3.83;3.53;;;4.40;99.90;;;;;;4896418;29;20207;-71
2020/12/23 08:50:00;;;;;;;9.05;3.50;;;4.30;99.90;;;;;;4897196;29;20253;-71
2020/12/23 08:52:27;;;;;;;5.82;3.92;;;4.30;99.90;;;;;;4895937;29;20598;-71
2020/12/23 08:54:54;;;;;;;8.95;4.43;;;4.20;99.90;;;;;;4896059;29;20247;-72
2020/12/23 08:57:26;;;;;;;4.00;3.60;;;4.20;99.90;;;;;;4895068;29;20207;-71
2020/12/23 08:59:52;;;;;;;4.60;3.78;;;4.20;99.90;;;;;;4896837;29;20206;-70
2020/12/23 09:02:19;;;;;;;7.28;4.45;;;4.30;99.90;;;;;;4896539;29;20719;-70
2020/12/23 09:04:46;;;;;;;7.43;4.40;;;4.30;99.90;;;;;;4896831;29;20222;-70
2020/12/23 09:07:20;;;;;;;8.73;5.03;;;4.40;99.90;;;;;;4896740;29;20207;-71
2020/12/23 09:09:46;;;;;;;6.85;5.15;;;4.50;99.90;;;;;;4896311;29;20297;-72
2020/12/23 09:12:20;;;;;;;6.93;3.83;;;4.60;99.90;;;;;;4887443;29;20234;-71
2020/12/23 09:14:46;;;;;;;7.18;4.10;;;4.60;99.90;;;;;;4896114;29;21093;-70
2020/12/23 09:17:21;;;;;;;5.40;4.18;;;4.60;99.90;;;;;;4896423;29;20390;-71
2020/12/23 09:19:50;;;;;;;6.50;4.28;;;4.60;99.90;;;;;;4896273;29;20230;-72
2020/12/23 09:22:28;;;;;;;5.88;4.80;;;4.60;99.90;;;;;;4896864;29;20230;-71
2020/12/23 09:25:22;;;;;;;5.85;4.70;;;4.60;99.90;;;;;;4893009;29;20237;-73
2020/12/23 09:27:50;;;;;;;6.72;4.43;;;4.70;99.90;;;;;;4893477;29;20238;-71
2020/12/23 09:30:30;;;;;;;7.53;3.50;;;4.70;99.90;;;;;;4900805;29;20631;-71
2020/12/23 09:32:57;;;;;;;7.45;4.28;;;4.70;99.90;;;;;;4905207;29;20258;-72
2020/12/23 09:35:25;;;;;;;4.35;3.53;;;4.80;99.90;;;;;;4896618;29;20207;-71
2020/12/23 09:38:07;;;;;;;5.75;3.90;;;4.80;99.90;;;;;;4897635;29;20269;-70
2020/12/23 09:40:34;;;;;;;14.43;4.18;;;4.90;99.90;;;;;;4893619;29;20230;-73
2020/12/23 09:43:01;;;;;;;11.45;5.00;;;4.90;99.90;;;;;;4903497;29;20216;-74
2020/12/23 09:45:27;;;;;;;12.30;4.50;;;4.90;99.90;;;;;;4896255;29;20233;-74
2020/12/23 09:47:53;;;;;;;10.15;4.55;;;4.90;99.90;;;;;;4890866;29;20215;-73
2020/12/23 09:50:19;;;;;;;9.98;4.28;;;5.00;99.90;;;;;;4895585;29;20585;-73
2020/12/23 09:52:46;;;;;;;6.57;3.95;;;5.00;99.90;;;;;;4895316;29;20207;-73
2020/12/23 09:55:13;;;;;;;10.57;5.22;;;5.00;99.90;;;;;;4896218;29;20343;-70
2020/12/23 09:57:39;;;;;;;11.40;5.78;;;5.10;99.90;;;;;;4895507;29;20223;-71
2020/12/23 10:00:06;;;;;;;18.55;6.88;;;5.10;99.90;;;;;;4896513;29;20227;-70
2020/12/23 10:02:33;;;;;;;10.77;5.85;;;5.10;99.90;;;;;;4900170;29;20230;-71
2020/12/23 10:04:59;;;;;;;16.67;7.30;;;5.10;99.90;;;;;;4902552;29;20231;-70
2020/12/23 10:07:25;;;;;;;9.95;6.50;;;5.10;99.90;;;;;;4900306;29;20215;-71
2020/12/23 10:09:52;;;;;;;16.17;6.10;;;5.20;99.90;;;;;;4903023;29;20204;-70
2020/12/23 10:12:20;;;;;;;14.10;8.57;;;5.30;99.90;;;;;;4901185;29;20723;-72
2020/12/23 10:14:46;;;;;;;7.65;5.50;;;5.30;99.90;;;;;;4901064;29;20544;-72
2020/12/23 10:17:12;;;;;;;7.53;5.70;;;5.30;99.90;;;;;;4895955;29;20227;-71
2020/12/23 10:19:38;;;;;;;9.60;6.20;;;5.30;99.90;;;;;;4899044;29;20211;-71
2020/12/23 10:22:05;;;;;;;10.57;6.13;;;5.40;99.90;;;;;;4896030;29;20306;-71
2020/12/23 10:24:31;;;;;;;11.13;6.22;;;5.50;99.90;;;;;;4899216;29;20712;-70
2020/12/23 10:26:57;;;;;;;7.70;4.90;;;5.50;99.90;;;;;;4903448;29;20207;-72
2020/12/23 10:29:24;;;;;;;8.52;6.18;;;5.60;99.90;;;;;;4899740;29;20207;-71
2020/12/23 10:31:50;;;;;;;10.43;5.45;;;5.70;99.90;;;;;;4899014;29;20223;-71
2020/12/23 10:34:16;;;;;;;7.15;5.53;;;5.70;99.90;;;;;;4898281;29;20199;-71
2020/12/23 10:36:45;;;;;;;4.70;4.30;;;5.70;99.90;;;;;;4899222;29;20207;-71
2020/12/23 10:39:11;;;;;;;5.30;4.90;;;5.80;99.90;;;;;;4901912;29;20207;-71
2020/12/23 10:41:38;;;;;;;6.40;4.47;;;5.90;99.90;;;;;;4898791;29;20271;-70
2020/12/23 10:44:04;;;;;;;5.47;4.43;;;5.90;99.90;;;;;;4898834;29;20649;-71
2020/12/23 10:46:31;;;;;;;5.43;4.82;;;6.00;99.90;;;;;;4899296;29;20579;-71
2020/12/23 10:48:57;;;;;;;6.60;4.00;;;6.10;99.90;;;;;;4898826;29;20211;-71
2020/12/23 10:51:23;;;;;;;6.18;5.15;;;6.10;99.90;;;;;;4883927;29;20290;-71
2020/12/23 10:53:49;;;;;;;7.55;5.20;;;6.20;99.90;;;;;;4898062;29;20569;-71
2020/12/23 10:56:15;;;;;;;5.63;5.10;;;6.20;99.90;;;;;;4897995;29;20207;-71
2020/12/23 10:58:42;;;;;;;7.75;5.13;;;6.30;99.90;;;;;;4898372;29;20241;-70
2020/12/23 11:01:08;;;;;;;6.05;4.75;;;6.30;99.90;;;;;;4897411;29;20234;-71
2020/12/23 11:03:35;;;;;;;5.85;4.43;;;6.40;99.90;;;;;;4898580;29;20218;-73
2020/12/23 11:06:01;;;;;;;10.07;5.13;;;6.40;99.90;;;;;;4898160;29;20230;-72
2020/12/23 11:08:28;;;;;;;5.30;4.60;;;6.50;99.90;;;;;;4898312;29;20227;-72
2020/12/23 11:10:55;;;;;;;9.65;5.20;;;6.50;99.90;;;;;;4896124;29;20235;-71
2020/12/23 11:13:21;;;;;;;5.10;4.53;;;6.60;99.90;;;;;;4897959;29;20211;-71
2020/12/23 11:15:47;;;;;;;8.88;5.18;;;6.60;99.90;;;;;;4898806;29;20203;-70
2020/12/23 11:18:13;;;;;;;6.10;4.88;;;6.60;99.90;;;;;;4898516;29;20255;-70
2020/12/23 11:20:40;;;;;;;7.53;5.53;;;6.60;99.90;;;;;;4897451;29;20280;-71
2020/12/23 11:23:07;;;;;;;5.95;5.22;;;6.70;99.90;;;;;;4897750;29;20313;-71
2020/12/23 11:25:33;;;;;;;9.73;5.63;;;6.80;99.90;;;;;;4897497;29;20242;-71
2020/12/23 11:27:59;;;;;;;9.23;6.55;;;6.80;99.90;;;;;;4897443;29;20212;-71
2020/12/23 11:30:25;;;;;;;8.73;7.80;;;6.80;99.90;;;;;;4898279;29;20211;-71
2020/12/23 11:32:51;;;;;;;8.20;7.03;;;6.80;99.90;;;;;;4897907;29;20683;-71
2020/12/23 11:35:18;;;;;;;8.23;6.65;;;6.80;99.90;;;;;;4898364;29;20211;-72
2020/12/23 11:37:45;;;;;;;7.10;6.50;;;6.80;99.90;;;;;;4897000;29;20211;-71
2020/12/23 11:40:11;;;;;;;6.88;6.28;;;6.80;99.90;;;;;;4897689;29;20282;-71
2020/12/23 11:42:41;;;;;;;10.38;6.88;;;6.90;99.90;;;;;;4897899;29;20214;-71
2020/12/23 11:45:09;;;;;;;10.35;7.25;;;6.90;99.90;;;;;;4897831;29;20240;-71
2020/12/23 11:47:35;;;;;;;8.32;6.70;;;6.90;99.90;;;;;;4897538;29;20207;-71
2020/12/23 11:50:01;;;;;;;5.50;4.95;;;7.00;99.90;;;;;;4897840;29;20208;-71
2020/12/23 11:52:27;;;;;;;9.48;6.07;;;7.00;99.90;;;;;;4897570;29;20227;-71
2020/12/23 11:54:54;;;;;;;9.27;6.75;;;7.00;99.90;;;;;;4898020;29;20208;-71
2020/12/23 11:57:20;;;;;;;9.75;6.93;;;6.90;99.90;;;;;;4896361;29;20527;-71
2020/12/23 11:59:46;;;;;;;7.13;5.47;;;6.90;99.90;;;;;;4897167;29;20211;-72
2020/12/23 12:02:12;;;;;;;9.32;6.47;;;7.00;99.90;;;;;;4897625;29;20231;-71
2020/12/23 12:04:39;;;;;;;11.73;6.55;;;7.00;99.90;;;;;;4897611;29;20227;-71
2020/12/23 12:07:05;;;;;;;6.50;5.85;;;7.00;99.90;;;;;;4896936;29;20687;-71
2020/12/23 12:09:31;;;;;;;6.50;5.78;;;7.00;99.90;;;;;;4898132;29;20274;-71
2020/12/23 12:11:58;;;;;;;5.78;4.97;;;6.90;99.90;;;;;;4897160;29;20235;-71
2020/12/23 12:14:24;;;;;;;6.93;6.22;;;6.90;99.90;;;;;;4897979;29;20207;-71
2020/12/23 12:16:51;;;;;;;6.40;5.03;;;6.80;99.90;;;;;;4897102;29;20267;-71
2020/12/23 12:19:17;;;;;;;6.65;5.40;;;6.80;99.90;;;;;;4898067;29;20215;-71
2020/12/23 12:21:43;;;;;;;5.47;4.90;;;6.80;99.90;;;;;;4897465;29;20234;-71
2020/12/23 12:24:09;;;;;;;7.05;5.40;;;6.70;99.90;;;;;;4897172;29;20668;-71
2020/12/23 12:26:35;;;;;;;9.15;6.20;;;6.70;99.90;;;;;;4896079;29;20211;-71
2020/12/23 12:29:03;;;;;;;7.82;5.85;;;6.70;99.90;;;;;;4897695;29;20219;-71
2020/12/23 12:31:30;;;;;;;9.50;6.75;;;6.70;99.90;;;;;;4897267;29;20731;-71
2020/12/23 12:33:57;;;;;;;6.75;5.80;;;6.60;99.90;;;;;;4897665;29;20687;-71
2020/12/23 12:36:24;;;;;;;10.77;7.35;;;6.60;99.90;;;;;;4896328;29;20207;-70
2020/12/23 12:38:51;;;;;;;10.02;6.78;;;6.50;99.90;;;;;;4897641;29;20259;-71
2020/12/23 12:41:22;;;;;;;9.75;7.85;;;6.50;99.90;;;;;;4897010;29;20242;-70
2020/12/23 12:43:48;;;;;;;13.15;7.13;;;6.40;99.90;;;;;;4897232;29;20562;-70
2020/12/23 12:46:16;;;;;;;9.63;6.57;;;6.40;99.90;;;;;;4896412;29;20223;-70
2020/12/23 12:48:42;;;;;;;16.92;8.02;;;6.40;99.90;;;;;;4897319;29;20211;-70
2020/12/23 12:51:08;;;;;;;14.15;7.90;;;6.40;99.90;;;;;;4897103;29;20235;-70
2020/12/23 12:53:34;;;;;;;10.70;7.25;;;6.30;99.90;;;;;;4897069;29;20210;-69
2020/12/23 12:56:00;;;;;;;10.60;8.05;;;6.30;99.90;;;;;;4895891;29;20214;-70
2020/12/23 12:58:26;;;;;;;14.82;7.80;;;6.30;99.90;;;;;;4896699;29;20238;-71
2020/12/23 13:00:53;;;;;;;9.07;7.18;;;6.30;99.90;;;;;;4897155;29;20250;-69
2020/12/23 13:03:20;;;;;;;9.48;7.50;;;6.30;99.90;;;;;;4896756;29;20743;-69
2020/12/23 13:05:50;;;;;;;11.40;7.95;;;6.30;99.90;;;;;;4895678;29;20235;-70
2020/12/23 13:08:16;;;;;;;50.70;28.42;;;6.30;99.90;;;;;;4896763;29;20729;-70
2020/12/23 13:10:42;;;;;;;30.75;17.20;;;6.20;99.90;;;;;;4896888;29;20334;-70
2020/12/23 13:13:09;;;;;;;18.20;12.88;;;6.20;99.90;;;;;;4896134;29;20215;-70
2020/12/23 13:15:35;;;;;;;22.38;14.40;;;6.20;99.90;;;;;;4896134;29;20195;-69
2020/12/23 13:18:01;;;;;;;18.55;11.95;;;6.20;99.90;;;;;;4896920;29;20215;-69
2020/12/23 13:20:28;;;;;;;19.95;13.40;;;6.20;99.90;;;;;;4896658;29;20895;-70
2020/12/23 13:22:54;;;;;;;23.90;14.75;;;6.20;99.90;;;;;;4896540;29;20222;-69
2020/12/23 13:25:20;;;;;;;22.67;14.88;;;6.20;99.90;;;;;;4895545;29;20248;-69
2020/12/23 13:27:47;;;;;;;11.60;9.88;;;6.20;99.90;;;;;;4896335;29;20215;-69
2020/12/23 13:30:13;;;;;;;10.25;7.53;;;6.20;99.90;;;;;;4896912;29;20211;-69
2020/12/23 13:32:40;;;;;;;9.00;7.40;;;6.20;99.90;;;;;;4896417;29;20675;-68
2020/12/23 13:35:07;;;;;;;8.82;7.25;;;6.30;99.90;;;;;;4896278;29;20209;-69
2020/12/23 13:37:34;;;;;;;7.25;6.45;;;6.30;99.90;;;;;;4899410;29;20305;-69
2020/12/23 13:40:00;;;;;;;9.15;5.88;;;6.30;99.90;;;;;;4900683;29;20683;-69
2020/12/23 13:42:26;;;;;;;7.65;6.85;;;6.30;99.90;;;;;;4899291;29;20227;-70
2020/12/23 13:44:52;;;;;;;7.10;5.90;;;6.30;99.90;;;;;;4900275;29;20298;-69
2020/12/23 13:47:19;;;;;;;6.70;5.78;;;6.40;99.90;;;;;;4899234;29;20214;-69
2020/12/23 13:49:45;;;;;;;10.20;6.07;;;6.40;99.90;;;;;;4900607;29;20255;-69
2020/12/23 13:52:12;;;;;;;7.72;6.40;;;6.40;99.90;;;;;;4899262;29;20235;-69
2020/12/23 13:54:39;;;;;;;7.22;6.20;;;6.40;99.90;;;;;;4896125;29;20377;-69
2020/12/23 13:57:05;;;;;;;11.00;7.05;;;6.40;99.90;;;;;;4897485;29;20215;-69
2020/12/23 13:59:31;;;;;;;8.38;6.85;;;6.40;99.90;;;;;;4899953;29;20207;-69
2020/12/23 14:01:57;;;;;;;15.48;9.07;;;6.40;99.90;;;;;;4898728;29;20243;-69
2020/12/23 14:04:24;;;;;;;14.75;8.52;;;6.50;99.90;;;;;;4899275;29;20692;-69
2020/12/23 14:06:50;;;;;;;6.78;6.10;;;6.50;99.90;;;;;;4899053;29;20199;-69
2020/12/23 14:09:16;;;;;;;5.57;5.03;;;6.50;99.90;;;;;;4899884;29;20628;-69
2020/12/23 14:11:43;;;;;;;6.75;6.25;;;6.50;99.90;;;;;;4898241;29;20227;-69
2020/12/23 14:14:09;;;;;;;8.40;5.90;;;6.50;99.90;;;;;;4899887;29;20695;-69
2020/12/23 14:16:35;;;;;;;6.22;5.45;;;6.50;99.90;;;;;;4898792;29;20328;-68
2020/12/23 14:19:01;;;;;;;7.63;6.03;;;6.60;99.90;;;;;;4900331;29;20211;-68
2020/12/23 14:21:27;;;;;;;6.90;5.70;;;6.60;99.90;;;;;;4899078;29;20235;-68
2020/12/23 14:23:54;;;;;;;7.03;6.28;;;6.60;99.90;;;;;;4898979;29;20667;-68
2020/12/23 14:26:20;;;;;;;8.88;5.28;;;6.60;99.90;;;;;;4898644;29;20310;-68
2020/12/23 14:28:47;;;;;;;7.53;6.07;;;6.70;99.90;;;;;;4899808;29;20207;-68
2020/12/23 14:31:13;;;;;;;8.70;5.20;;;6.70;99.90;;;;;;4898994;29;20250;-69
2020/12/23 14:33:40;;;;;;;7.68;5.93;;;6.70;99.90;;;;;;4899577;29;20219;-69
2020/12/23 14:36:09;;;;;;;7.10;5.82;;;6.70;99.90;;;;;;4907760;29;20667;-70
2020/12/23 14:38:35;;;;;;;9.50;6.38;;;6.70;99.90;;;;;;4904272;29;20219;-70
2020/12/23 14:41:02;;;;;;;6.80;5.40;;;6.80;99.90;;;;;;4898916;29;20230;-70
2020/12/23 14:43:28;;;;;;;8.60;6.60;;;6.80;99.90;;;;;;4901979;29;20301;-70
2020/12/23 14:45:55;;;;;;;7.80;6.20;;;6.80;99.90;;;;;;4909890;29;20593;-69
2020/12/23 14:48:21;;;;;;;8.57;6.40;;;6.80;99.90;;;;;;4897942;29;20222;-70
2020/12/23 14:50:47;;;;;;;10.32;7.72;;;6.80;99.90;;;;;;4899013;29;20232;-70
2020/12/23 14:53:14;;;;;;;6.43;5.93;;;6.90;99.90;;;;;;4898541;29;20207;-70
2020/12/23 14:55:40;;;;;;;7.63;6.97;;;6.90;99.90;;;;;;4898247;29;20637;-70
2020/12/23 14:58:06;;;;;;;7.60;5.93;;;6.90;99.90;;;;;;4897089;29;20672;-70
2020/12/23 15:00:32;;;;;;;7.57;6.88;;;6.90;99.90;;;;;;4898180;29;20345;-70
2020/12/23 15:02:59;;;;;;;10.38;6.80;;;6.90;99.90;;;;;;4895103;29;20215;-70
2020/12/23 15:05:25;;;;;;;11.18;6.30;;;6.90;99.90;;;;;;4890057;29;20231;-70
2020/12/23 15:07:52;;;;;;;6.50;5.75;;;7.00;99.90;;;;;;4892657;29;20271;-70
2020/12/23 15:10:18;;;;;;;7.18;5.82;;;7.00;99.90;;;;;;4891119;29;20216;-69
2020/12/23 15:12:44;;;;;;;9.10;7.43;;;7.00;99.90;;;;;;4895941;29;20226;-69
2020/12/23 15:15:10;;;;;;;10.15;7.90;;;7.00;99.90;;;;;;4897239;29;20259;-69
2020/12/23 15:17:36;;;;;;;7.63;6.93;;;7.00;99.90;;;;;;4898250;29;20255;-68
2020/12/23 15:20:03;;;;;;;10.77;8.02;;;7.00;99.90;;;;;;4898884;29;20210;-68
2020/12/23 15:22:29;;;;;;;10.43;8.40;;;7.00;99.90;;;;;;4897688;29;20315;-67
2020/12/23 15:24:55;;;;;;;10.38;8.35;;;7.10;99.90;;;;;;4897947;29;20375;-70
2020/12/23 15:27:21;;;;;;;10.40;8.63;;;7.10;99.90;;;;;;4897074;29;20211;-68
2020/12/23 15:29:48;;;;;;;8.55;7.75;;;7.10;99.90;;;;;;4898695;29;20203;-68
2020/12/23 15:32:14;;;;;;;11.20;8.57;;;7.10;99.90;;;;;;4898061;29;20605;-68
2020/12/23 15:34:40;;;;;;;13.63;9.32;;;7.10;99.90;;;;;;4897155;29;20200;-68
2020/12/23 15:37:07;;;;;;;10.68;8.43;;;7.20;99.90;;;;;;4897742;29;20210;-70
2020/12/23 15:39:33;;;;;;;8.90;7.65;;;7.20;99.90;;;;;;4898148;29;20299;-68
2020/12/23 15:41:59;;;;;;;9.80;7.07;;;7.20;99.90;;;;;;4897049;29;20227;-68
2020/12/23 15:44:25;;;;;;;9.23;7.40;;;7.20;99.90;;;;;;4897516;29;20613;-68
2020/12/23 15:46:55;;;;;;;11.65;7.07;;;7.20;99.90;;;;;;4897210;29;20306;-71
2020/12/23 15:49:22;;;;;;;8.60;7.00;;;7.20;99.90;;;;;;4898174;29;20290;-68
2020/12/23 15:51:48;;;;;;;8.02;6.97;;;7.20;99.90;;;;;;4896615;29;20223;-67
2020/12/23 15:54:15;;;;;;;7.47;5.88;;;7.20;99.90;;;;;;4897040;29;20525;-68
2020/12/23 15:56:41;;;;;;;11.32;6.10;;;7.20;99.90;;;;;;4897066;29;20227;-69
2020/12/23 15:59:07;;;;;;;7.65;6.40;;;7.20;99.90;;;;;;4896280;29;20214;-71
2020/12/23 16:01:33;;;;;;;7.53;6.40;;;7.20;99.90;;;;;;4896847;29;20238;-71
2020/12/23 16:03:59;;;;;;;9.00;6.50;;;7.30;99.90;;;;;;4897385;29;20211;-71
2020/12/23 16:06:25;;;;;;;13.93;7.38;;;7.20;99.90;;;;;;4897355;29;20235;-71
2020/12/23 16:08:52;;;;;;;7.05;6.35;;;7.30;99.90;;;;;;4897796;29;20215;-71
2020/12/23 16:11:19;;;;;;;7.07;6.28;;;7.30;99.90;;;;;;4896102;29;20238;-71
2020/12/23 16:13:45;;;;;;;7.95;7.25;;;7.30;99.90;;;;;;4896630;29;20211;-71
2020/12/23 16:16:11;;;;;;;11.52;6.70;;;7.30;99.90;;;;;;4897502;29;20214;-71
2020/12/23 16:18:39;;;;;;;9.68;7.55;;;7.30;99.90;;;;;;4897377;29;20211;-72
2020/12/23 16:21:05;;;;;;;7.25;6.55;;;7.30;99.90;;;;;;4897295;29;20680;-71
2020/12/23 16:23:31;;;;;;;10.77;7.40;;;7.30;99.90;;;;;;4896805;29;20211;-71
2020/12/23 16:25:57;;;;;;;6.72;6.13;;;7.40;99.90;;;;;;4896740;29;20684;-70
2020/12/23 16:28:24;;;;;;;6.60;6.00;;;7.40;99.90;;;;;;4896136;29;20259;-70
2020/12/23 16:30:50;;;;;;;10.13;7.18;;;7.40;99.90;;;;;;4896952;29;20227;-69
2020/12/23 16:33:17;;;;;;;7.45;6.68;;;7.40;99.90;;;;;;4896977;29;20572;-69
2020/12/23 16:35:43;;;;;;;7.00;6.32;;;7.40;99.90;;;;;;4896929;29;20204;-70
2020/12/23 16:38:09;;;;;;;6.32;5.75;;;7.40;99.90;;;;;;4897051;29;20641;-69
2020/12/23 16:40:35;;;;;;;6.85;5.75;;;7.40;99.90;;;;;;4896167;29;20243;-70
2020/12/23 16:43:02;;;;;;;5.65;5.18;;;7.40;99.90;;;;;;4896137;29;20215;-70
2020/12/23 16:45:30;;;;;;;5.10;4.80;;;7.40;99.90;;;;;;4896844;29;20244;-70
2020/12/23 16:47:56;;;;;;;6.05;5.45;;;7.50;99.90;;;;;;4896966;29;20215;-70
2020/12/23 16:50:23;;;;;;;6.40;5.78;;;7.50;99.90;;;;;;4896121;29;20647;-69
2020/12/23 16:52:49;;;;;;;6.60;5.95;;;7.50;99.90;;;;;;4896317;29;20270;-69
2020/12/23 16:55:15;;;;;;;7.90;5.40;;;7.60;99.90;;;;;;4896425;29;20259;-69
2020/12/23 16:57:41;;;;;;;10.20;7.07;;;7.50;99.90;;;;;;4896284;29;20218;-69
2020/12/23 17:00:08;;;;;;;7.32;6.00;;;7.60;99.90;;;;;;4896125;29;20203;-69
2020/12/23 17:02:35;;;;;;;6.28;5.68;;;7.60;99.90;;;;;;4895975;29;20215;-69
2020/12/23 17:05:01;;;;;;;6.75;6.15;;;7.60;99.90;;;;;;4896542;29;20223;-69
2020/12/23 17:07:27;;;;;;;7.43;5.95;;;7.70;99.90;;;;;;4896297;29;20266;-69
2020/12/23 17:09:53;;;;;;;7.55;6.53;;;7.70;99.90;;;;;;4895184;29;20261;-69
2020/12/23 17:12:19;;;;;;;5.60;5.18;;;7.70;99.90;;;;;;4892295;29;20234;-69
2020/12/23 17:14:45;;;;;;;8.05;6.13;;;7.80;99.90;;;;;;4895961;29;20259;-69
2020/12/23 17:17:11;;;;;;;7.20;6.60;;;7.80;99.90;;;;;;4895242;29;20242;-69
2020/12/23 17:19:40;;;;;;;6.88;6.22;;;7.80;99.90;;;;;;4895976;29;20231;-68
2020/12/23 17:22:07;;;;;;;7.63;6.85;;;7.80;99.90;;;;;;4895507;29;20227;-68
2020/12/23 17:24:34;;;;;;;7.95;7.15;;;7.80;99.90;;;;;;4896248;29;20211;-69
2020/12/23 17:27:00;;;;;;;8.75;7.70;;;7.90;99.90;;;;;;4895150;29;20239;-69
2020/12/23 17:29:27;;;;;;;7.97;7.18;;;7.90;99.90;;;;;;4895739;29;20627;-69
2020/12/23 17:31:54;;;;;;;8.82;7.30;;;7.80;99.90;;;;;;4895380;29;20235;-69
2020/12/23 17:34:20;;;;;;;8.15;6.80;;;7.80;99.90;;;;;;4895632;29;20204;-69
2020/12/23 17:36:47;;;;;;;9.55;6.32;;;7.80;99.90;;;;;;4896090;29;20230;-70
2020/12/23 17:39:14;;;;;;;7.22;6.53;;;7.90;99.90;;;;;;4895828;29;20207;-70
2020/12/23 17:41:42;;;;;;;9.05;7.82;;;7.90;99.90;;;;;;4894871;29;20235;-71
2020/12/23 17:44:08;;;;;;;10.27;6.90;;;7.90;99.90;;;;;;4896116;29;20259;-70
2020/12/23 17:46:35;;;;;;;7.60;6.20;;;7.90;99.90;;;;;;4895789;29;20231;-72
2020/12/23 17:49:02;;;;;;;7.68;6.93;;;7.90;99.90;;;;;;4895500;29;20208;-68
2020/12/23 17:51:30;;;;;;;8.70;7.70;;;7.90;99.90;;;;;;4896232;29;20290;-70
2020/12/23 17:53:59;;;;;;;10.38;8.65;;;7.90;99.90;;;;;;4895690;29;20215;-69